UAL2197 KDEN-MZBZ
Flight info
| Callsign | UAL2197 |
|---|---|
| Flight time | 3h 44m |
| Altitude | 37000 |
| Route | SLEEK2 SLEEK DCT PNH DCT SJT DCT BRO/N0451F390 DCT VESKO UT22 GABAT DCT VIKMO DCT DASMO DASMO1A |
| Aircraft | A20N/M-SDE2E3FGHIRWXY/LB1 |
Departure
| Time | 2026-04-26 16:13 |
|---|---|
| Airport | Denver International Airport (KDEN) |
Arrival
| Time | 2026-04-26 19:57 |
|---|---|
| Airport | Philip S. W. Goldson International Airport (MZBZ) |
| Time | Latitude | Longitude | Altitude | Speed | Heading |
|---|---|---|---|---|---|
| 2026-04-26 15:43 | 39.85806 | -104.66996 | 5380 ft | 0 kts | 0° |
| 2026-04-26 15:59 | 39.85797 | -104.66996 | 5377 ft | 4 kts | 360° |
| 2026-04-26 16:00 | 39.85770 | -104.66996 | 5380 ft | 4 kts | 360° |
| 2026-04-26 16:00 | 39.85742 | -104.66996 | 5377 ft | 4 kts | 360° |
| 2026-04-26 16:00 | 39.85717 | -104.66996 | 5378 ft | 2 kts | 360° |
| 2026-04-26 16:00 | 39.85716 | -104.66996 | 5378 ft | 1 kts | 360° |
| 2026-04-26 16:03 | 39.85718 | -104.66996 | 5376 ft | 1 kts | 0° |
| 2026-04-26 16:03 | 39.85724 | -104.66992 | 5378 ft | 1 kts | 23° |
| 2026-04-26 16:04 | 39.85730 | -104.66980 | 5377 ft | 2 kts | 62° |
| 2026-04-26 16:04 | 39.85731 | -104.66956 | 5383 ft | 5 kts | 90° |
| 2026-04-26 16:04 | 39.85730 | -104.66894 | 5380 ft | 9 kts | 95° |
| 2026-04-26 16:04 | 39.85701 | -104.66827 | 5380 ft | 8 kts | 144° |
| 2026-04-26 16:05 | 39.85665 | -104.66772 | 5381 ft | 8 kts | 111° |
| 2026-04-26 16:05 | 39.85664 | -104.66700 | 5379 ft | 8 kts | 86° |
| 2026-04-26 16:05 | 39.85666 | -104.66625 | 5380 ft | 9 kts | 88° |
| 2026-04-26 16:05 | 39.85672 | -104.66545 | 5379 ft | 9 kts | 77° |
| 2026-04-26 16:06 | 39.85680 | -104.66472 | 5381 ft | 7 kts | 89° |
| 2026-04-26 16:06 | 39.85680 | -104.66417 | 5383 ft | 5 kts | 90° |
| 2026-04-26 16:06 | 39.85680 | -104.66374 | 5385 ft | 5 kts | 90° |
| 2026-04-26 16:06 | 39.85681 | -104.66331 | 5387 ft | 5 kts | 88° |
| 2026-04-26 16:07 | 39.85683 | -104.66282 | 5389 ft | 6 kts | 82° |
| 2026-04-26 16:07 | 39.85719 | -104.66238 | 5388 ft | 10 kts | 17° |
| 2026-04-26 16:07 | 39.85802 | -104.66237 | 5388 ft | 13 kts | 0° |
| 2026-04-26 16:07 | 39.85903 | -104.66234 | 5387 ft | 16 kts | 1° |
| 2026-04-26 16:08 | 39.86027 | -104.66233 | 5386 ft | 20 kts | 0° |
| 2026-04-26 16:08 | 39.86131 | -104.66231 | 5383 ft | 24 kts | 1° |
| 2026-04-26 16:08 | 39.86379 | -104.66227 | 5382 ft | 28 kts | 359° |
| 2026-04-26 16:08 | 39.86574 | -104.66228 | 5378 ft | 28 kts | 360° |
| 2026-04-26 16:09 | 39.86772 | -104.66224 | 5373 ft | 29 kts | 1° |
| 2026-04-26 16:09 | 39.86979 | -104.66219 | 5368 ft | 30 kts | 1° |
| 2026-04-26 16:09 | 39.87188 | -104.66216 | 5365 ft | 30 kts | 0° |
| 2026-04-26 16:09 | 39.87401 | -104.66213 | 5361 ft | 31 kts | 1° |
| 2026-04-26 16:10 | 39.87582 | -104.66207 | 5362 ft | 1 kts | 360° |
| 2026-04-26 16:10 | 39.87585 | -104.66207 | 5362 ft | 1 kts | 360° |
| 2026-04-26 16:10 | 39.87598 | -104.66208 | 5362 ft | 3 kts | 359° |
| 2026-04-26 16:10 | 39.87621 | -104.66208 | 5362 ft | 4 kts | 359° |
| 2026-04-26 16:11 | 39.87655 | -104.66210 | 5362 ft | 5 kts | 358° |
| 2026-04-26 16:11 | 39.87694 | -104.66211 | 5362 ft | 7 kts | 0° |
| 2026-04-26 16:11 | 39.87743 | -104.66188 | 5361 ft | 11 kts | 50° |
| 2026-04-26 16:11 | 39.87755 | -104.65873 | 5356 ft | 69 kts | 90° |
| 2026-04-26 16:12 | 39.87753 | -104.64980 | 5347 ft | 95 kts | 91° |
| 2026-04-26 16:12 | 39.87748 | -104.64172 | 5333 ft | 116 kts | 91° |
| 2026-04-26 16:12 | 39.87737 | -104.61228 | 5857 ft | 181 kts | 89° |
| 2026-04-26 16:13 | 39.87723 | -104.59571 | 6633 ft | 184 kts | 91° |
| 2026-04-26 16:13 | 39.87712 | -104.57908 | 7279 ft | 183 kts | 93° |
| 2026-04-26 16:13 | 39.87707 | -104.56222 | 7782 ft | 194 kts | 92° |
| 2026-04-26 16:13 | 39.87718 | -104.54378 | 8105 ft | 214 kts | 92° |
| 2026-04-26 16:14 | 39.87729 | -104.52336 | 8393 ft | 237 kts | 92° |
| 2026-04-26 16:14 | 39.87737 | -104.50091 | 8623 ft | 261 kts | 92° |
| 2026-04-26 16:14 | 39.87562 | -104.45007 | 9408 ft | 294 kts | 110° |
| 2026-04-26 16:15 | 39.86624 | -104.42670 | 9819 ft | 290 kts | 134° |
| 2026-04-26 16:15 | 39.85091 | -104.41101 | 9930 ft | 282 kts | 159° |
| 2026-04-26 16:15 | 39.83233 | -104.40210 | 9949 ft | 281 kts | 165° |
| 2026-04-26 16:16 | 39.79222 | -104.38614 | 10190 ft | 325 kts | 167° |
| 2026-04-26 16:16 | 39.77026 | -104.37816 | 10908 ft | 330 kts | 167° |
| 2026-04-26 16:16 | 39.74807 | -104.36999 | 11634 ft | 334 kts | 167° |
| 2026-04-26 16:16 | 39.72530 | -104.36341 | 12288 ft | 336 kts | 178° |
| 2026-04-26 16:17 | 39.70202 | -104.36449 | 12986 ft | 336 kts | 193° |
| 2026-04-26 16:17 | 39.67977 | -104.37347 | 13683 ft | 336 kts | 204° |
| 2026-04-26 16:17 | 39.65803 | -104.38504 | 14358 ft | 338 kts | 205° |
| 2026-04-26 16:17 | 39.63619 | -104.39660 | 15045 ft | 340 kts | 204° |
| 2026-04-26 16:18 | 39.61422 | -104.40817 | 15722 ft | 342 kts | 204° |
| 2026-04-26 16:18 | 39.56981 | -104.43146 | 17018 ft | 347 kts | 204° |
| 2026-04-26 16:19 | 39.52332 | -104.44878 | 17842 ft | 356 kts | 189° |
| 2026-04-26 16:19 | 39.49839 | -104.44827 | 17878 ft | 362 kts | 177° |
| 2026-04-26 16:19 | 39.45668 | -104.43813 | 17872 ft | 364 kts | 174° |
| 2026-04-26 16:20 | 39.42375 | -104.42998 | 17868 ft | 364 kts | 174° |
| 2026-04-26 16:20 | 39.37397 | -104.41790 | 17878 ft | 364 kts | 174° |
| 2026-04-26 16:20 | 39.34909 | -104.41189 | 17856 ft | 364 kts | 174° |
| 2026-04-26 16:21 | 39.32417 | -104.40589 | 17873 ft | 364 kts | 174° |
| 2026-04-26 16:21 | 39.29925 | -104.39989 | 17892 ft | 364 kts | 174° |
| 2026-04-26 16:21 | 39.27435 | -104.39390 | 17892 ft | 364 kts | 174° |
| 2026-04-26 16:21 | 39.24941 | -104.38790 | 17901 ft | 364 kts | 174° |
| 2026-04-26 16:22 | 39.22450 | -104.38191 | 17909 ft | 364 kts | 174° |
| 2026-04-26 16:22 | 39.19963 | -104.37594 | 17922 ft | 364 kts | 174° |
| 2026-04-26 16:22 | 39.17470 | -104.36995 | 17932 ft | 364 kts | 174° |
| 2026-04-26 16:22 | 39.14982 | -104.36399 | 17938 ft | 363 kts | 174° |
| 2026-04-26 16:23 | 39.12505 | -104.35672 | 17937 ft | 366 kts | 171° |
| 2026-04-26 16:23 | 39.10035 | -104.34875 | 17951 ft | 366 kts | 171° |
| 2026-04-26 16:23 | 39.07563 | -104.34079 | 17959 ft | 366 kts | 171° |
| 2026-04-26 16:23 | 39.05088 | -104.33285 | 17968 ft | 366 kts | 171° |
| 2026-04-26 16:24 | 39.02618 | -104.32495 | 17958 ft | 366 kts | 171° |
| 2026-04-26 16:24 | 39.00136 | -104.31703 | 18136 ft | 369 kts | 171° |
| 2026-04-26 16:24 | 38.97639 | -104.30906 | 18747 ft | 369 kts | 171° |
| 2026-04-26 16:24 | 38.95144 | -104.30110 | 19351 ft | 370 kts | 171° |
| 2026-04-26 16:25 | 38.92635 | -104.29311 | 19930 ft | 373 kts | 171° |
| 2026-04-26 16:25 | 38.90114 | -104.28508 | 20490 ft | 375 kts | 171° |
| 2026-04-26 16:25 | 38.87575 | -104.27700 | 21032 ft | 377 kts | 171° |
| 2026-04-26 16:25 | 38.85020 | -104.26887 | 21564 ft | 380 kts | 171° |
| 2026-04-26 16:26 | 38.82482 | -104.26080 | 22067 ft | 382 kts | 171° |
| 2026-04-26 16:26 | 38.80731 | -104.25524 | 22422 ft | 384 kts | 171° |
| 2026-04-26 16:26 | 38.77281 | -104.24429 | 23097 ft | 388 kts | 171° |
| 2026-04-26 16:26 | 38.74655 | -104.23596 | 23563 ft | 390 kts | 171° |
| 2026-04-26 16:27 | 38.72009 | -104.22757 | 23978 ft | 393 kts | 171° |
| 2026-04-26 16:27 | 38.69345 | -104.21911 | 24320 ft | 397 kts | 171° |
| 2026-04-26 16:27 | 38.66657 | -104.21059 | 24757 ft | 398 kts | 171° |
| 2026-04-26 16:27 | 38.63958 | -104.20202 | 25144 ft | 401 kts | 172° |
| 2026-04-26 16:28 | 38.62126 | -104.19624 | 25411 ft | 402 kts | 172° |
| 2026-04-26 16:28 | 38.59401 | -104.18764 | 25799 ft | 405 kts | 172° |
| 2026-04-26 16:28 | 38.56657 | -104.17900 | 26170 ft | 407 kts | 172° |
| 2026-04-26 16:28 | 38.53938 | -104.17021 | 26520 ft | 412 kts | 169° |
| 2026-04-26 16:29 | 38.51229 | -104.15723 | 26870 ft | 421 kts | 161° |
| 2026-04-26 16:29 | 38.48648 | -104.13863 | 27169 ft | 432 kts | 153° |
| 2026-04-26 16:29 | 38.46242 | -104.11460 | 27341 ft | 445 kts | 147° |
| 2026-04-26 16:29 | 38.43886 | -104.08886 | 27693 ft | 447 kts | 147° |
| 2026-04-26 16:30 | 38.41515 | -104.06309 | 28031 ft | 449 kts | 148° |
| 2026-04-26 16:30 | 38.39126 | -104.03728 | 28330 ft | 451 kts | 148° |
| 2026-04-26 16:30 | 38.36722 | -104.01138 | 28620 ft | 454 kts | 148° |
| 2026-04-26 16:30 | 38.34302 | -103.98539 | 28911 ft | 456 kts | 148° |
| 2026-04-26 16:31 | 38.31870 | -103.95929 | 29187 ft | 458 kts | 148° |
| 2026-04-26 16:31 | 38.29423 | -103.93306 | 29467 ft | 461 kts | 148° |
| 2026-04-26 16:31 | 38.26964 | -103.90669 | 29697 ft | 464 kts | 149° |
| 2026-04-26 16:31 | 38.24492 | -103.88022 | 29964 ft | 466 kts | 149° |
| 2026-04-26 16:32 | 38.22009 | -103.85366 | 30206 ft | 467 kts | 149° |
| 2026-04-26 16:32 | 38.19512 | -103.82702 | 30430 ft | 470 kts | 149° |
| 2026-04-26 16:32 | 38.17004 | -103.80024 | 30696 ft | 471 kts | 149° |
| 2026-04-26 16:32 | 38.14490 | -103.77342 | 30966 ft | 473 kts | 149° |
| 2026-04-26 16:33 | 38.11970 | -103.74655 | 31295 ft | 473 kts | 149° |
| 2026-04-26 16:33 | 38.09454 | -103.71975 | 31648 ft | 472 kts | 149° |
| 2026-04-26 16:33 | 38.06920 | -103.69343 | 31881 ft | 468 kts | 154° |
| 2026-04-26 16:33 | 38.04239 | -103.67070 | 32153 ft | 459 kts | 160° |
| 2026-04-26 16:34 | 38.01478 | -103.65065 | 32461 ft | 457 kts | 161° |
| 2026-04-26 16:34 | 37.98724 | -103.63062 | 32770 ft | 456 kts | 161° |
| 2026-04-26 16:34 | 37.95973 | -103.61056 | 33002 ft | 456 kts | 161° |
| 2026-04-26 16:34 | 37.93228 | -103.59050 | 33283 ft | 455 kts | 161° |
| 2026-04-26 16:35 | 37.90489 | -103.57048 | 33571 ft | 454 kts | 161° |
| 2026-04-26 16:35 | 37.87752 | -103.55049 | 33844 ft | 454 kts | 161° |
| 2026-04-26 16:35 | 37.85015 | -103.53053 | 34000 ft | 455 kts | 161° |
| 2026-04-26 16:35 | 37.82270 | -103.51055 | 34206 ft | 455 kts | 161° |
| 2026-04-26 16:36 | 37.79528 | -103.49061 | 34395 ft | 455 kts | 161° |
| 2026-04-26 16:36 | 37.76781 | -103.47064 | 34570 ft | 456 kts | 161° |
| 2026-04-26 16:36 | 37.74032 | -103.45068 | 34766 ft | 455 kts | 161° |
| 2026-04-26 16:36 | 37.71285 | -103.43074 | 34969 ft | 455 kts | 161° |
| 2026-04-26 16:37 | 37.68541 | -103.41085 | 35134 ft | 455 kts | 161° |
| 2026-04-26 16:37 | 37.65794 | -103.39095 | 35309 ft | 455 kts | 161° |
| 2026-04-26 16:37 | 37.63047 | -103.37108 | 35491 ft | 455 kts | 161° |
| 2026-04-26 16:37 | 37.60302 | -103.35123 | 35626 ft | 455 kts | 161° |
| 2026-04-26 16:38 | 37.57556 | -103.33139 | 35779 ft | 455 kts | 161° |
| 2026-04-26 16:38 | 37.54846 | -103.31182 | 35963 ft | 455 kts | 161° |
| 2026-04-26 16:38 | 37.52102 | -103.29203 | 36083 ft | 455 kts | 161° |
| 2026-04-26 16:38 | 37.49355 | -103.27224 | 36248 ft | 455 kts | 161° |
| 2026-04-26 16:39 | 37.46610 | -103.25247 | 36406 ft | 454 kts | 161° |
| 2026-04-26 16:39 | 37.43865 | -103.23272 | 36500 ft | 454 kts | 161° |
| 2026-04-26 16:39 | 37.41120 | -103.21298 | 36642 ft | 454 kts | 162° |
| 2026-04-26 16:39 | 37.38377 | -103.19328 | 36788 ft | 454 kts | 161° |
| 2026-04-26 16:40 | 37.32887 | -103.15390 | 36865 ft | 454 kts | 161° |
| 2026-04-26 16:40 | 37.27408 | -103.11464 | 36863 ft | 453 kts | 161° |
| 2026-04-26 16:41 | 37.21932 | -103.07549 | 36816 ft | 453 kts | 162° |
| 2026-04-26 16:41 | 37.16456 | -103.03640 | 36876 ft | 453 kts | 162° |
| 2026-04-26 16:42 | 37.10977 | -102.99737 | 36876 ft | 453 kts | 162° |
| 2026-04-26 16:42 | 37.05495 | -102.95837 | 36884 ft | 454 kts | 162° |
| 2026-04-26 16:43 | 37.00018 | -102.91943 | 36739 ft | 450 kts | 162° |
| 2026-04-26 16:43 | 36.94550 | -102.88067 | 36779 ft | 455 kts | 162° |
| 2026-04-26 16:44 | 36.89055 | -102.84172 | 36781 ft | 453 kts | 162° |
| 2026-04-26 16:44 | 36.83604 | -102.80322 | 36783 ft | 454 kts | 162° |
| 2026-04-26 16:45 | 36.78102 | -102.76444 | 36733 ft | 454 kts | 162° |
| 2026-04-26 16:45 | 36.72577 | -102.72556 | 36798 ft | 458 kts | 162° |
| 2026-04-26 16:46 | 36.67032 | -102.68654 | 36799 ft | 457 kts | 162° |
| 2026-04-26 16:46 | 36.61503 | -102.64769 | 36793 ft | 456 kts | 162° |
| 2026-04-26 16:47 | 36.55983 | -102.60899 | 36764 ft | 455 kts | 162° |
| 2026-04-26 16:47 | 36.50435 | -102.57024 | 36816 ft | 460 kts | 162° |
| 2026-04-26 16:48 | 36.44852 | -102.53123 | 36821 ft | 460 kts | 162° |
| 2026-04-26 16:48 | 36.39278 | -102.49231 | 36810 ft | 460 kts | 162° |
| 2026-04-26 16:49 | 36.33700 | -102.45348 | 36793 ft | 460 kts | 162° |
| 2026-04-26 16:49 | 36.28094 | -102.41455 | 36856 ft | 464 kts | 162° |
| 2026-04-26 16:50 | 36.22453 | -102.37540 | 36863 ft | 464 kts | 162° |
| 2026-04-26 16:50 | 36.16831 | -102.33641 | 36870 ft | 463 kts | 162° |
| 2026-04-26 16:51 | 36.11202 | -102.29748 | 36854 ft | 463 kts | 162° |
| 2026-04-26 16:51 | 36.05557 | -102.25853 | 36861 ft | 466 kts | 162° |
| 2026-04-26 16:52 | 36.00860 | -102.22612 | 36854 ft | 465 kts | 162° |
| 2026-04-26 16:52 | 35.94301 | -102.18096 | 36808 ft | 464 kts | 162° |
| 2026-04-26 16:53 | 35.88665 | -102.14223 | 36805 ft | 463 kts | 162° |
| 2026-04-26 16:53 | 35.85850 | -102.12291 | 36908 ft | 463 kts | 162° |
| 2026-04-26 16:53 | 35.83025 | -102.10357 | 36917 ft | 467 kts | 162° |
| 2026-04-26 16:54 | 35.77338 | -102.06464 | 36913 ft | 467 kts | 162° |
| 2026-04-26 16:54 | 35.71659 | -102.02580 | 36896 ft | 469 kts | 162° |
| 2026-04-26 16:55 | 35.65951 | -101.98684 | 36869 ft | 469 kts | 162° |
| 2026-04-26 16:55 | 35.60236 | -101.94789 | 36845 ft | 471 kts | 162° |
| 2026-04-26 16:56 | 35.51650 | -101.88948 | 36806 ft | 470 kts | 162° |
| 2026-04-26 16:57 | 35.45929 | -101.85066 | 36826 ft | 470 kts | 162° |
| 2026-04-26 16:57 | 35.37341 | -101.79249 | 36876 ft | 470 kts | 162° |
| 2026-04-26 16:58 | 35.32577 | -101.76028 | 36911 ft | 471 kts | 162° |
| 2026-04-26 16:59 | 35.22926 | -101.69934 | 36926 ft | 459 kts | 171° |
| 2026-04-26 16:59 | 35.16935 | -101.67663 | 36887 ft | 447 kts | 176° |
| 2026-04-26 17:00 | 35.10925 | -101.65668 | 36744 ft | 448 kts | 176° |
| 2026-04-26 17:00 | 35.01906 | -101.62636 | 36743 ft | 449 kts | 176° |
| 2026-04-26 17:01 | 34.95920 | -101.60626 | 36741 ft | 450 kts | 176° |
| 2026-04-26 17:01 | 34.89882 | -101.58603 | 36741 ft | 450 kts | 176° |
| 2026-04-26 17:02 | 34.85849 | -101.57253 | 36740 ft | 451 kts | 176° |
| 2026-04-26 17:03 | 34.81001 | -101.55628 | 36740 ft | 444 kts | 176° |
| 2026-04-26 17:03 | 34.78068 | -101.54635 | 36746 ft | 431 kts | 176° |
| 2026-04-26 17:03 | 34.75226 | -101.53675 | 36747 ft | 418 kts | 177° |
| 2026-04-26 17:04 | 34.72462 | -101.52748 | 36749 ft | 406 kts | 177° |
| 2026-04-26 17:04 | 34.69778 | -101.51851 | 36705 ft | 394 kts | 178° |
| 2026-04-26 17:04 | 34.64611 | -101.50142 | 36435 ft | 381 kts | 178° |
| 2026-04-26 17:05 | 34.62047 | -101.49325 | 36045 ft | 381 kts | 179° |
| 2026-04-26 17:05 | 34.59475 | -101.48533 | 35665 ft | 381 kts | 179° |
| 2026-04-26 17:05 | 34.56903 | -101.47766 | 35376 ft | 380 kts | 179° |
| 2026-04-26 17:05 | 34.54344 | -101.47023 | 35157 ft | 376 kts | 180° |
| 2026-04-26 17:06 | 34.51808 | -101.46306 | 34958 ft | 372 kts | 180° |
| 2026-04-26 17:06 | 34.49295 | -101.45613 | 34772 ft | 369 kts | 180° |
| 2026-04-26 17:06 | 34.46795 | -101.44945 | 34560 ft | 366 kts | 181° |
| 2026-04-26 17:06 | 34.44313 | -101.44302 | 34324 ft | 364 kts | 181° |
| 2026-04-26 17:07 | 34.41834 | -101.43682 | 34114 ft | 363 kts | 181° |
| 2026-04-26 17:07 | 34.39368 | -101.43087 | 33917 ft | 361 kts | 182° |
| 2026-04-26 17:07 | 34.36899 | -101.42516 | 33765 ft | 363 kts | 182° |
| 2026-04-26 17:07 | 34.34402 | -101.41972 | 33852 ft | 365 kts | 182° |
| 2026-04-26 17:08 | 34.31912 | -101.41453 | 34095 ft | 361 kts | 183° |
| 2026-04-26 17:08 | 34.29444 | -101.40908 | 34304 ft | 366 kts | 177° |
| 2026-04-26 17:08 | 34.26988 | -101.39869 | 34388 ft | 382 kts | 167° |
| 2026-04-26 17:08 | 34.24588 | -101.38404 | 34500 ft | 389 kts | 162° |
| 2026-04-26 17:09 | 34.20704 | -101.35527 | 34681 ft | 395 kts | 160° |
| 2026-04-26 17:09 | 34.15089 | -101.31917 | 34776 ft | 389 kts | 168° |
| 2026-04-26 17:10 | 34.12643 | -101.30656 | 34905 ft | 386 kts | 170° |
| 2026-04-26 17:10 | 34.10151 | -101.29479 | 34997 ft | 385 kts | 172° |
| 2026-04-26 17:10 | 34.05065 | -101.27399 | 35152 ft | 383 kts | 175° |
| 2026-04-26 17:11 | 34.02528 | -101.26455 | 35363 ft | 380 kts | 175° |
| 2026-04-26 17:11 | 34.00001 | -101.25559 | 35506 ft | 378 kts | 176° |
| 2026-04-26 17:11 | 33.94939 | -101.23871 | 35733 ft | 377 kts | 177° |
| 2026-04-26 17:12 | 33.89925 | -101.22120 | 36013 ft | 376 kts | 176° |
| 2026-04-26 17:12 | 33.87432 | -101.21209 | 36189 ft | 373 kts | 176° |
| 2026-04-26 17:13 | 33.82513 | -101.19321 | 36456 ft | 370 kts | 175° |
| 2026-04-26 17:13 | 33.80068 | -101.18342 | 36528 ft | 371 kts | 174° |
| 2026-04-26 17:14 | 33.72742 | -101.15168 | 36609 ft | 377 kts | 171° |
| 2026-04-26 17:14 | 33.67788 | -101.12784 | 36339 ft | 390 kts | 170° |
| 2026-04-26 17:14 | 33.65253 | -101.11536 | 36229 ft | 397 kts | 170° |
| 2026-04-26 17:15 | 33.60023 | -101.08949 | 35771 ft | 416 kts | 169° |
| 2026-04-26 17:15 | 33.57327 | -101.07798 | 35983 ft | 400 kts | 180° |
| 2026-04-26 17:15 | 33.54656 | -101.07332 | 36355 ft | 382 kts | 185° |
| 2026-04-26 17:16 | 33.52005 | -101.06862 | 36444 ft | 388 kts | 182° |
| 2026-04-26 17:16 | 33.46626 | -101.05705 | 36366 ft | 399 kts | 182° |
| 2026-04-26 17:16 | 33.44805 | -101.05326 | 36243 ft | 404 kts | 182° |
| 2026-04-26 17:17 | 33.42009 | -101.04760 | 36094 ft | 412 kts | 182° |
| 2026-04-26 17:17 | 33.39149 | -101.04203 | 35928 ft | 421 kts | 182° |
| 2026-04-26 17:17 | 33.36223 | -101.03657 | 35768 ft | 430 kts | 182° |
| 2026-04-26 17:17 | 33.32258 | -101.02949 | 35582 ft | 441 kts | 182° |
| 2026-04-26 17:18 | 33.29193 | -101.02425 | 35449 ft | 449 kts | 182° |
| 2026-04-26 17:18 | 33.26092 | -101.01876 | 35311 ft | 454 kts | 180° |
| 2026-04-26 17:18 | 33.23994 | -101.01337 | 35222 ft | 458 kts | 176° |
| 2026-04-26 17:18 | 33.20915 | -101.00692 | 35442 ft | 439 kts | 187° |
| 2026-04-26 17:19 | 33.14893 | -101.00493 | 35847 ft | 439 kts | 186° |
| 2026-04-26 17:19 | 33.11822 | -101.00017 | 35895 ft | 450 kts | 180° |
| 2026-04-26 17:19 | 33.08728 | -100.99253 | 36012 ft | 457 kts | 177° |
| 2026-04-26 17:20 | 33.05636 | -100.98329 | 36202 ft | 459 kts | 176° |
| 2026-04-26 17:20 | 33.03594 | -100.97679 | 36344 ft | 459 kts | 175° |
| 2026-04-26 17:20 | 32.99513 | -100.96353 | 36632 ft | 458 kts | 176° |
| 2026-04-26 17:20 | 32.96436 | -100.95355 | 36782 ft | 459 kts | 176° |
| 2026-04-26 17:21 | 32.90285 | -100.93379 | 36819 ft | 457 kts | 176° |
| 2026-04-26 17:21 | 32.84143 | -100.91420 | 36853 ft | 457 kts | 176° |
| 2026-04-26 17:22 | 32.78000 | -100.89466 | 36874 ft | 457 kts | 176° |
| 2026-04-26 17:22 | 32.71861 | -100.87515 | 36879 ft | 457 kts | 176° |
| 2026-04-26 17:23 | 32.65722 | -100.85566 | 36866 ft | 456 kts | 176° |
| 2026-04-26 17:23 | 32.59585 | -100.83621 | 36842 ft | 457 kts | 176° |
| 2026-04-26 17:24 | 32.53445 | -100.81679 | 36815 ft | 457 kts | 176° |
| 2026-04-26 17:24 | 32.47299 | -100.79737 | 36786 ft | 457 kts | 176° |
| 2026-04-26 17:25 | 32.41146 | -100.77795 | 36777 ft | 458 kts | 176° |
| 2026-04-26 17:25 | 32.34986 | -100.75853 | 36786 ft | 458 kts | 176° |
| 2026-04-26 17:26 | 32.28820 | -100.73913 | 36738 ft | 459 kts | 176° |
| 2026-04-26 17:26 | 32.22685 | -100.71986 | 36742 ft | 460 kts | 176° |
| 2026-04-26 17:27 | 32.16499 | -100.70045 | 36751 ft | 460 kts | 176° |
| 2026-04-26 17:27 | 32.10312 | -100.68104 | 36745 ft | 460 kts | 177° |
| 2026-04-26 17:28 | 32.04119 | -100.66167 | 36752 ft | 461 kts | 177° |
| 2026-04-26 17:28 | 31.97910 | -100.64227 | 36758 ft | 462 kts | 177° |
| 2026-04-26 17:29 | 31.92712 | -100.62604 | 36752 ft | 461 kts | 177° |
| 2026-04-26 17:29 | 31.85509 | -100.60359 | 36753 ft | 462 kts | 177° |
| 2026-04-26 17:30 | 31.79303 | -100.58435 | 36767 ft | 461 kts | 177° |
| 2026-04-26 17:30 | 31.73089 | -100.56508 | 36762 ft | 464 kts | 177° |
| 2026-04-26 17:31 | 31.66851 | -100.54563 | 36756 ft | 463 kts | 177° |
| 2026-04-26 17:31 | 31.60616 | -100.52634 | 36811 ft | 464 kts | 177° |
| 2026-04-26 17:32 | 31.54375 | -100.50698 | 36837 ft | 464 kts | 177° |
| 2026-04-26 17:32 | 31.48141 | -100.48769 | 36865 ft | 464 kts | 177° |
| 2026-04-26 17:33 | 31.41897 | -100.46841 | 36881 ft | 464 kts | 177° |
| 2026-04-26 17:34 | 31.32692 | -100.42648 | 36872 ft | 484 kts | 163° |
| 2026-04-26 17:34 | 31.26702 | -100.39035 | 36860 ft | 484 kts | 163° |
| 2026-04-26 17:35 | 31.20701 | -100.35438 | 36841 ft | 485 kts | 163° |
| 2026-04-26 17:35 | 31.14690 | -100.31846 | 36822 ft | 485 kts | 163° |
| 2026-04-26 17:36 | 31.08675 | -100.28257 | 36797 ft | 485 kts | 163° |
| 2026-04-26 17:36 | 31.02699 | -100.24696 | 36793 ft | 486 kts | 163° |
| 2026-04-26 17:37 | 30.96675 | -100.21114 | 36795 ft | 486 kts | 163° |
| 2026-04-26 17:37 | 30.90648 | -100.17537 | 36782 ft | 486 kts | 163° |
| 2026-04-26 17:38 | 30.81597 | -100.12172 | 36782 ft | 487 kts | 163° |
| 2026-04-26 17:38 | 30.75559 | -100.08601 | 36794 ft | 487 kts | 163° |
| 2026-04-26 17:39 | 30.69516 | -100.05030 | 36812 ft | 487 kts | 163° |
| 2026-04-26 17:39 | 30.63470 | -100.01463 | 36838 ft | 488 kts | 163° |
| 2026-04-26 17:40 | 30.58439 | -99.98500 | 36870 ft | 488 kts | 163° |
| 2026-04-26 17:40 | 30.51365 | -99.94338 | 36882 ft | 488 kts | 163° |
| 2026-04-26 17:41 | 30.45311 | -99.90780 | 36894 ft | 488 kts | 163° |
| 2026-04-26 17:41 | 30.39249 | -99.87224 | 36894 ft | 489 kts | 163° |
| 2026-04-26 17:42 | 30.33179 | -99.83668 | 36872 ft | 488 kts | 163° |
| 2026-04-26 17:42 | 30.27147 | -99.80141 | 36849 ft | 489 kts | 163° |
| 2026-04-26 17:43 | 30.21075 | -99.76592 | 36804 ft | 489 kts | 163° |
| 2026-04-26 17:43 | 30.15007 | -99.73051 | 36809 ft | 489 kts | 163° |
| 2026-04-26 17:44 | 30.08932 | -99.69512 | 36811 ft | 489 kts | 163° |
| 2026-04-26 17:44 | 30.02854 | -99.65976 | 36808 ft | 489 kts | 163° |
| 2026-04-26 17:45 | 29.96779 | -99.62447 | 36817 ft | 489 kts | 163° |
| 2026-04-26 17:45 | 29.90700 | -99.58920 | 36831 ft | 489 kts | 163° |
| 2026-04-26 17:46 | 29.84612 | -99.55393 | 36834 ft | 490 kts | 163° |
| 2026-04-26 17:46 | 29.78524 | -99.51870 | 36828 ft | 490 kts | 163° |
| 2026-04-26 17:47 | 29.73464 | -99.48946 | 36826 ft | 490 kts | 162° |
| 2026-04-26 17:47 | 29.66350 | -99.44837 | 36831 ft | 489 kts | 163° |
| 2026-04-26 17:48 | 29.60234 | -99.41324 | 36829 ft | 492 kts | 163° |
| 2026-04-26 17:48 | 29.54106 | -99.37797 | 36832 ft | 493 kts | 162° |
| 2026-04-26 17:49 | 29.47980 | -99.34272 | 36868 ft | 493 kts | 162° |
| 2026-04-26 17:49 | 29.41839 | -99.30748 | 36887 ft | 493 kts | 162° |
| 2026-04-26 17:50 | 29.35704 | -99.27230 | 36895 ft | 493 kts | 162° |
| 2026-04-26 17:50 | 29.29571 | -99.23720 | 36896 ft | 492 kts | 162° |
| 2026-04-26 17:51 | 29.23443 | -99.20217 | 36884 ft | 492 kts | 162° |
| 2026-04-26 17:51 | 29.17412 | -99.16774 | 36866 ft | 491 kts | 162° |
| 2026-04-26 17:52 | 29.11376 | -99.13334 | 36845 ft | 491 kts | 162° |
| 2026-04-26 17:52 | 29.05266 | -99.09855 | 36827 ft | 490 kts | 162° |
| 2026-04-26 17:53 | 28.99136 | -99.06375 | 36828 ft | 495 kts | 162° |
| 2026-04-26 17:54 | 28.89922 | -99.01143 | 36830 ft | 494 kts | 162° |
| 2026-04-26 17:54 | 28.83760 | -98.97649 | 36824 ft | 495 kts | 162° |
| 2026-04-26 17:55 | 28.77596 | -98.94161 | 36829 ft | 494 kts | 162° |
| 2026-04-26 17:55 | 28.71431 | -98.90676 | 36853 ft | 495 kts | 162° |
| 2026-04-26 17:56 | 28.65263 | -98.87196 | 36836 ft | 495 kts | 162° |
| 2026-04-26 17:57 | 28.52919 | -98.80243 | 36862 ft | 495 kts | 162° |
| 2026-04-26 17:57 | 28.46748 | -98.76773 | 36888 ft | 495 kts | 162° |
| 2026-04-26 17:58 | 28.34375 | -98.69833 | 36909 ft | 495 kts | 161° |
| 2026-04-26 17:59 | 28.25110 | -98.64644 | 36915 ft | 495 kts | 161° |
| 2026-04-26 17:59 | 28.18931 | -98.61191 | 36908 ft | 495 kts | 161° |
| 2026-04-26 18:00 | 28.12751 | -98.57741 | 36898 ft | 495 kts | 161° |
| 2026-04-26 18:00 | 28.06568 | -98.54295 | 36904 ft | 495 kts | 161° |
| 2026-04-26 18:01 | 28.00390 | -98.50855 | 36894 ft | 495 kts | 161° |
| 2026-04-26 18:01 | 27.94208 | -98.47418 | 36893 ft | 495 kts | 161° |
| 2026-04-26 18:02 | 27.90117 | -98.45145 | 36883 ft | 494 kts | 161° |
| 2026-04-26 18:02 | 27.81861 | -98.40566 | 36869 ft | 494 kts | 161° |
| 2026-04-26 18:03 | 27.75695 | -98.37151 | 36850 ft | 493 kts | 161° |
| 2026-04-26 18:03 | 27.69533 | -98.33742 | 36855 ft | 494 kts | 161° |
| 2026-04-26 18:04 | 27.63366 | -98.30336 | 36852 ft | 494 kts | 161° |
| 2026-04-26 18:05 | 27.54116 | -98.25233 | 36841 ft | 494 kts | 161° |
| 2026-04-26 18:05 | 27.47976 | -98.21852 | 36852 ft | 494 kts | 161° |
| 2026-04-26 18:06 | 27.41798 | -98.18453 | 36839 ft | 495 kts | 161° |
| 2026-04-26 18:06 | 27.35614 | -98.15055 | 36838 ft | 495 kts | 161° |
| 2026-04-26 18:07 | 27.29423 | -98.11659 | 36841 ft | 495 kts | 161° |
| 2026-04-26 18:07 | 27.24239 | -98.08817 | 36842 ft | 495 kts | 161° |
| 2026-04-26 18:08 | 27.18048 | -98.05428 | 36836 ft | 495 kts | 161° |
| 2026-04-26 18:08 | 27.11855 | -98.02042 | 36838 ft | 495 kts | 161° |
| 2026-04-26 18:09 | 27.05657 | -97.98657 | 36841 ft | 496 kts | 161° |
| 2026-04-26 18:09 | 26.99449 | -97.95272 | 36834 ft | 496 kts | 161° |
| 2026-04-26 18:10 | 26.93243 | -97.91891 | 36823 ft | 496 kts | 161° |
| 2026-04-26 18:10 | 26.87024 | -97.88508 | 36835 ft | 497 kts | 161° |
| 2026-04-26 18:11 | 26.80806 | -97.85129 | 36837 ft | 497 kts | 161° |
| 2026-04-26 18:11 | 26.74577 | -97.81748 | 36839 ft | 498 kts | 161° |
| 2026-04-26 18:12 | 26.68339 | -97.78367 | 36835 ft | 498 kts | 161° |
| 2026-04-26 18:12 | 26.62137 | -97.75010 | 36834 ft | 498 kts | 160° |
| 2026-04-26 18:13 | 26.55891 | -97.71632 | 36845 ft | 499 kts | 160° |
| 2026-04-26 18:13 | 26.49636 | -97.68253 | 36844 ft | 500 kts | 161° |
| 2026-04-26 18:14 | 26.43377 | -97.64877 | 36844 ft | 500 kts | 161° |
| 2026-04-26 18:14 | 26.37110 | -97.61501 | 36843 ft | 500 kts | 161° |
| 2026-04-26 18:15 | 26.30846 | -97.58131 | 36836 ft | 500 kts | 160° |
| 2026-04-26 18:15 | 26.24575 | -97.54760 | 36837 ft | 501 kts | 160° |
| 2026-04-26 18:16 | 26.18299 | -97.51391 | 36839 ft | 501 kts | 160° |
| 2026-04-26 18:16 | 26.08875 | -97.46337 | 36861 ft | 501 kts | 160° |
| 2026-04-26 18:17 | 26.02594 | -97.42974 | 36852 ft | 501 kts | 160° |
| 2026-04-26 18:17 | 25.96344 | -97.39539 | 36842 ft | 504 kts | 154° |
| 2026-04-26 18:18 | 25.90850 | -97.34592 | 36843 ft | 515 kts | 134° |
| 2026-04-26 18:18 | 25.86617 | -97.28134 | 36835 ft | 518 kts | 126° |
| 2026-04-26 18:19 | 25.82562 | -97.21512 | 36836 ft | 519 kts | 126° |
| 2026-04-26 18:19 | 25.78523 | -97.14945 | 36838 ft | 519 kts | 126° |
| 2026-04-26 18:20 | 25.74451 | -97.08342 | 36839 ft | 518 kts | 126° |
| 2026-04-26 18:20 | 25.71037 | -97.02811 | 36836 ft | 519 kts | 126° |
| 2026-04-26 18:21 | 25.66297 | -96.95145 | 36835 ft | 519 kts | 126° |
| 2026-04-26 18:21 | 25.62214 | -96.88551 | 36836 ft | 519 kts | 126° |
| 2026-04-26 18:22 | 25.58128 | -96.81961 | 36836 ft | 519 kts | 126° |
| 2026-04-26 18:22 | 25.54040 | -96.75379 | 36836 ft | 519 kts | 126° |
| 2026-04-26 18:23 | 25.49947 | -96.68795 | 36837 ft | 519 kts | 126° |
| 2026-04-26 18:23 | 25.45855 | -96.62224 | 36836 ft | 518 kts | 126° |
| 2026-04-26 18:24 | 25.41761 | -96.55658 | 36842 ft | 518 kts | 126° |
| 2026-04-26 18:24 | 25.37671 | -96.49108 | 36832 ft | 518 kts | 126° |
| 2026-04-26 18:25 | 25.33576 | -96.42560 | 36830 ft | 517 kts | 126° |
| 2026-04-26 18:25 | 25.29485 | -96.36026 | 36834 ft | 517 kts | 126° |
| 2026-04-26 18:26 | 25.25393 | -96.29499 | 36832 ft | 516 kts | 126° |
| 2026-04-26 18:26 | 25.21302 | -96.22983 | 36833 ft | 516 kts | 126° |
| 2026-04-26 18:27 | 25.17212 | -96.16478 | 36831 ft | 515 kts | 126° |
| 2026-04-26 18:27 | 25.13122 | -96.09982 | 36830 ft | 515 kts | 126° |
| 2026-04-26 18:28 | 25.09033 | -96.03498 | 36836 ft | 515 kts | 126° |
| 2026-04-26 18:28 | 25.04944 | -95.97020 | 36833 ft | 514 kts | 126° |
| 2026-04-26 18:29 | 25.00853 | -95.90549 | 36829 ft | 514 kts | 126° |
| 2026-04-26 18:29 | 24.96764 | -95.84089 | 36836 ft | 514 kts | 126° |
| 2026-04-26 18:30 | 24.92674 | -95.77636 | 36841 ft | 514 kts | 126° |
| 2026-04-26 18:30 | 24.88580 | -95.71188 | 36829 ft | 513 kts | 126° |
| 2026-04-26 18:31 | 24.84488 | -95.64749 | 36839 ft | 513 kts | 126° |
| 2026-04-26 18:31 | 24.80393 | -95.58315 | 36838 ft | 513 kts | 126° |
| 2026-04-26 18:32 | 24.76323 | -95.51928 | 36843 ft | 513 kts | 126° |
| 2026-04-26 18:32 | 24.72222 | -95.45502 | 36841 ft | 513 kts | 126° |
| 2026-04-26 18:33 | 24.68119 | -95.39079 | 36841 ft | 513 kts | 126° |
| 2026-04-26 18:33 | 24.64069 | -95.32751 | 36846 ft | 513 kts | 126° |
| 2026-04-26 18:34 | 24.59961 | -95.26338 | 36850 ft | 513 kts | 126° |
| 2026-04-26 18:34 | 24.55852 | -95.19932 | 36849 ft | 513 kts | 126° |
| 2026-04-26 18:35 | 24.51744 | -95.13536 | 36848 ft | 512 kts | 126° |
| 2026-04-26 18:35 | 24.47633 | -95.07144 | 36848 ft | 512 kts | 126° |
| 2026-04-26 18:36 | 24.43522 | -95.00761 | 36845 ft | 512 kts | 126° |
| 2026-04-26 18:36 | 24.39412 | -94.94387 | 36846 ft | 511 kts | 126° |
| 2026-04-26 18:37 | 24.35302 | -94.88022 | 36850 ft | 511 kts | 126° |
| 2026-04-26 18:37 | 24.31250 | -94.81755 | 36851 ft | 510 kts | 126° |
| 2026-04-26 18:38 | 24.27146 | -94.75415 | 36842 ft | 510 kts | 126° |
| 2026-04-26 18:38 | 24.23044 | -94.69086 | 36845 ft | 509 kts | 126° |
| 2026-04-26 18:39 | 24.18943 | -94.62764 | 36836 ft | 509 kts | 126° |
| 2026-04-26 18:39 | 24.14843 | -94.56450 | 36849 ft | 509 kts | 125° |
| 2026-04-26 18:40 | 24.11055 | -94.49919 | 36846 ft | 508 kts | 120° |
| 2026-04-26 18:40 | 24.07406 | -94.43300 | 36843 ft | 508 kts | 121° |
| 2026-04-26 18:41 | 24.03733 | -94.36766 | 36841 ft | 507 kts | 121° |
| 2026-04-26 18:41 | 24.00013 | -94.30211 | 36831 ft | 507 kts | 121° |
| 2026-04-26 18:42 | 23.96290 | -94.23666 | 36842 ft | 507 kts | 121° |
| 2026-04-26 18:42 | 23.92566 | -94.17125 | 36849 ft | 506 kts | 121° |
| 2026-04-26 18:43 | 23.88842 | -94.10592 | 36851 ft | 506 kts | 121° |
| 2026-04-26 18:43 | 23.85116 | -94.04066 | 36850 ft | 506 kts | 121° |
| 2026-04-26 18:44 | 23.81317 | -93.97592 | 36849 ft | 506 kts | 126° |
| 2026-04-26 18:44 | 23.76657 | -93.91858 | 36843 ft | 505 kts | 139° |
| 2026-04-26 18:45 | 23.71309 | -93.86911 | 36842 ft | 504 kts | 141° |
| 2026-04-26 18:45 | 23.65948 | -93.81983 | 36839 ft | 504 kts | 141° |
| 2026-04-26 18:46 | 23.60591 | -93.77057 | 36853 ft | 504 kts | 141° |
| 2026-04-26 18:46 | 23.55232 | -93.72138 | 36854 ft | 504 kts | 141° |
| 2026-04-26 18:47 | 23.49869 | -93.67223 | 36853 ft | 504 kts | 141° |
| 2026-04-26 18:47 | 23.44504 | -93.62311 | 36849 ft | 504 kts | 141° |
| 2026-04-26 18:48 | 23.39139 | -93.57406 | 36852 ft | 504 kts | 141° |
| 2026-04-26 18:48 | 23.33773 | -93.52505 | 36843 ft | 504 kts | 141° |
| 2026-04-26 18:49 | 23.28405 | -93.47606 | 36849 ft | 504 kts | 141° |
| 2026-04-26 18:49 | 23.23032 | -93.42709 | 36850 ft | 504 kts | 141° |
| 2026-04-26 18:50 | 23.17658 | -93.37816 | 36850 ft | 504 kts | 141° |
| 2026-04-26 18:50 | 23.12279 | -93.32924 | 36854 ft | 504 kts | 141° |
| 2026-04-26 18:51 | 23.06898 | -93.28035 | 36845 ft | 504 kts | 141° |
| 2026-04-26 18:51 | 23.01515 | -93.23150 | 36854 ft | 504 kts | 141° |
| 2026-04-26 18:52 | 22.97041 | -93.19094 | 36855 ft | 504 kts | 141° |
| 2026-04-26 18:52 | 22.90742 | -93.13389 | 36857 ft | 505 kts | 141° |
| 2026-04-26 18:53 | 22.86259 | -93.09334 | 36856 ft | 505 kts | 141° |
| 2026-04-26 18:53 | 22.80866 | -93.04459 | 36867 ft | 505 kts | 141° |
| 2026-04-26 18:54 | 22.75467 | -92.99585 | 36869 ft | 505 kts | 141° |
| 2026-04-26 18:54 | 22.70073 | -92.94721 | 36864 ft | 505 kts | 141° |
| 2026-04-26 18:55 | 22.64675 | -92.89858 | 36864 ft | 504 kts | 141° |
| 2026-04-26 18:55 | 22.59281 | -92.85002 | 36866 ft | 504 kts | 141° |
| 2026-04-26 18:56 | 22.53887 | -92.80154 | 36857 ft | 504 kts | 141° |
| 2026-04-26 18:56 | 22.48495 | -92.75311 | 36859 ft | 504 kts | 141° |
| 2026-04-26 18:57 | 22.43976 | -92.71257 | 36863 ft | 504 kts | 141° |
| 2026-04-26 18:57 | 22.37716 | -92.65647 | 36869 ft | 503 kts | 141° |
| 2026-04-26 18:58 | 22.32331 | -92.60826 | 36868 ft | 502 kts | 141° |
| 2026-04-26 18:58 | 22.26948 | -92.56011 | 36867 ft | 502 kts | 141° |
| 2026-04-26 18:59 | 22.21569 | -92.51205 | 36862 ft | 502 kts | 141° |
| 2026-04-26 18:59 | 22.16194 | -92.46408 | 36856 ft | 501 kts | 141° |
| 2026-04-26 19:00 | 22.10820 | -92.41616 | 36848 ft | 501 kts | 141° |
| 2026-04-26 19:00 | 22.05448 | -92.36832 | 36860 ft | 501 kts | 141° |
| 2026-04-26 19:01 | 22.00076 | -92.32052 | 36859 ft | 501 kts | 141° |
| 2026-04-26 19:01 | 21.94705 | -92.27278 | 36873 ft | 500 kts | 141° |
| 2026-04-26 19:02 | 21.89331 | -92.22506 | 36872 ft | 500 kts | 141° |
| 2026-04-26 19:02 | 21.84868 | -92.18547 | 36871 ft | 500 kts | 141° |
| 2026-04-26 19:03 | 21.78591 | -92.12984 | 36875 ft | 500 kts | 141° |
| 2026-04-26 19:03 | 21.73224 | -92.08233 | 36870 ft | 499 kts | 141° |
| 2026-04-26 19:04 | 21.67931 | -92.03551 | 36864 ft | 499 kts | 141° |
| 2026-04-26 19:04 | 21.62567 | -91.98812 | 36869 ft | 499 kts | 141° |
| 2026-04-26 19:05 | 21.54522 | -91.91713 | 36864 ft | 499 kts | 141° |
| 2026-04-26 19:06 | 21.49178 | -91.87003 | 36867 ft | 495 kts | 141° |
| 2026-04-26 19:06 | 21.43844 | -91.82306 | 36871 ft | 496 kts | 141° |
| 2026-04-26 19:07 | 21.38575 | -91.77671 | 36868 ft | 496 kts | 141° |
| 2026-04-26 19:07 | 21.33233 | -91.72977 | 36868 ft | 496 kts | 141° |
| 2026-04-26 19:08 | 21.27892 | -91.68285 | 36867 ft | 496 kts | 141° |
| 2026-04-26 19:08 | 21.22584 | -91.63629 | 36868 ft | 496 kts | 141° |
| 2026-04-26 19:09 | 21.17240 | -91.58946 | 36868 ft | 496 kts | 141° |
| 2026-04-26 19:09 | 21.11893 | -91.54266 | 36867 ft | 496 kts | 141° |
| 2026-04-26 19:10 | 21.06565 | -91.49606 | 36865 ft | 492 kts | 141° |
| 2026-04-26 19:10 | 21.01252 | -91.44964 | 36867 ft | 493 kts | 141° |
| 2026-04-26 19:11 | 20.95936 | -91.40324 | 36864 ft | 493 kts | 141° |
| 2026-04-26 19:11 | 20.90620 | -91.35688 | 36860 ft | 493 kts | 141° |
| 2026-04-26 19:12 | 20.85301 | -91.31052 | 36859 ft | 493 kts | 141° |
| 2026-04-26 19:12 | 20.79985 | -91.26420 | 36841 ft | 493 kts | 141° |
| 2026-04-26 19:13 | 20.74771 | -91.21666 | 36863 ft | 493 kts | 139° |
| 2026-04-26 19:13 | 20.69596 | -91.16867 | 36856 ft | 493 kts | 139° |
| 2026-04-26 19:14 | 20.64407 | -91.12087 | 36858 ft | 492 kts | 139° |
| 2026-04-26 19:14 | 20.59215 | -91.07324 | 36858 ft | 492 kts | 139° |
| 2026-04-26 19:15 | 20.54023 | -91.02568 | 36856 ft | 492 kts | 139° |
| 2026-04-26 19:15 | 20.48830 | -90.97815 | 36854 ft | 491 kts | 139° |
| 2026-04-26 19:16 | 20.43645 | -90.93072 | 36854 ft | 491 kts | 139° |
| 2026-04-26 19:16 | 20.38460 | -90.88335 | 36836 ft | 491 kts | 139° |
| 2026-04-26 19:17 | 20.33277 | -90.83604 | 36841 ft | 490 kts | 139° |
| 2026-04-26 19:17 | 20.28097 | -90.78880 | 36839 ft | 490 kts | 139° |
| 2026-04-26 19:18 | 20.22914 | -90.74157 | 36838 ft | 490 kts | 140° |
| 2026-04-26 19:18 | 20.17737 | -90.69444 | 36831 ft | 490 kts | 140° |
| 2026-04-26 19:19 | 20.12562 | -90.64738 | 36822 ft | 489 kts | 140° |
| 2026-04-26 19:19 | 20.07385 | -90.60034 | 36827 ft | 489 kts | 140° |
| 2026-04-26 19:20 | 20.02211 | -90.55336 | 36815 ft | 489 kts | 140° |
| 2026-04-26 19:20 | 19.97036 | -90.50642 | 36817 ft | 489 kts | 140° |
| 2026-04-26 19:21 | 19.91861 | -90.45953 | 36823 ft | 489 kts | 140° |
| 2026-04-26 19:21 | 19.86683 | -90.41264 | 36820 ft | 489 kts | 140° |
| 2026-04-26 19:22 | 19.81503 | -90.36578 | 36835 ft | 489 kts | 140° |
| 2026-04-26 19:22 | 19.76326 | -90.31899 | 36823 ft | 489 kts | 140° |
| 2026-04-26 19:23 | 19.71142 | -90.27219 | 36826 ft | 489 kts | 140° |
| 2026-04-26 19:23 | 19.65962 | -90.22545 | 36826 ft | 489 kts | 140° |
| 2026-04-26 19:24 | 19.60779 | -90.17873 | 36825 ft | 489 kts | 140° |
| 2026-04-26 19:24 | 19.53003 | -90.10871 | 36819 ft | 489 kts | 140° |
| 2026-04-26 19:25 | 19.49571 | -90.07783 | 36842 ft | 489 kts | 140° |
| 2026-04-26 19:25 | 19.42636 | -90.01550 | 36836 ft | 489 kts | 140° |
| 2026-04-26 19:26 | 19.37447 | -89.96892 | 36850 ft | 488 kts | 140° |
| 2026-04-26 19:26 | 19.32266 | -89.92243 | 36851 ft | 488 kts | 140° |
| 2026-04-26 19:27 | 19.27089 | -89.87603 | 36843 ft | 487 kts | 140° |
| 2026-04-26 19:27 | 19.24544 | -89.85323 | 36705 ft | 486 kts | 140° |
| 2026-04-26 19:27 | 19.21964 | -89.83012 | 36460 ft | 487 kts | 140° |
| 2026-04-26 19:28 | 19.19372 | -89.80693 | 36004 ft | 489 kts | 140° |
| 2026-04-26 19:28 | 19.16776 | -89.78371 | 35521 ft | 489 kts | 140° |
| 2026-04-26 19:28 | 19.14180 | -89.76049 | 35057 ft | 489 kts | 140° |
| 2026-04-26 19:28 | 19.11577 | -89.73722 | 34576 ft | 490 kts | 140° |
| 2026-04-26 19:29 | 19.08967 | -89.71390 | 34119 ft | 493 kts | 140° |
| 2026-04-26 19:29 | 19.06341 | -89.69045 | 33652 ft | 495 kts | 140° |
| 2026-04-26 19:29 | 19.03704 | -89.66692 | 33135 ft | 496 kts | 140° |
| 2026-04-26 19:29 | 19.01064 | -89.64336 | 32630 ft | 498 kts | 140° |
| 2026-04-26 19:30 | 18.98409 | -89.61968 | 32134 ft | 500 kts | 140° |
| 2026-04-26 19:30 | 18.95745 | -89.59593 | 31649 ft | 502 kts | 140° |
| 2026-04-26 19:30 | 18.93069 | -89.57208 | 31166 ft | 504 kts | 139° |
| 2026-04-26 19:30 | 18.91254 | -89.55592 | 30846 ft | 506 kts | 139° |
| 2026-04-26 19:31 | 18.87686 | -89.52414 | 30223 ft | 507 kts | 139° |
| 2026-04-26 19:31 | 18.84995 | -89.50019 | 29657 ft | 505 kts | 139° |
| 2026-04-26 19:31 | 18.82322 | -89.47642 | 29043 ft | 500 kts | 139° |
| 2026-04-26 19:31 | 18.79674 | -89.45287 | 28448 ft | 495 kts | 139° |
| 2026-04-26 19:32 | 18.77058 | -89.42962 | 27848 ft | 489 kts | 139° |
| 2026-04-26 19:32 | 18.74473 | -89.40664 | 27274 ft | 484 kts | 139° |
| 2026-04-26 19:32 | 18.71911 | -89.38389 | 26719 ft | 478 kts | 139° |
| 2026-04-26 19:32 | 18.69378 | -89.36140 | 26170 ft | 473 kts | 139° |
| 2026-04-26 19:33 | 18.66874 | -89.33918 | 25625 ft | 468 kts | 139° |
| 2026-04-26 19:33 | 18.64395 | -89.31719 | 25094 ft | 463 kts | 139° |
| 2026-04-26 19:33 | 18.61943 | -89.29545 | 24573 ft | 458 kts | 139° |
| 2026-04-26 19:33 | 18.59515 | -89.27393 | 24061 ft | 454 kts | 139° |
| 2026-04-26 19:34 | 18.57111 | -89.25263 | 23558 ft | 449 kts | 139° |
| 2026-04-26 19:34 | 18.54735 | -89.23159 | 22992 ft | 444 kts | 139° |
| 2026-04-26 19:34 | 18.52381 | -89.21075 | 22405 ft | 440 kts | 139° |
| 2026-04-26 19:34 | 18.50052 | -89.19013 | 21829 ft | 435 kts | 139° |
| 2026-04-26 19:35 | 18.47742 | -89.16970 | 21256 ft | 431 kts | 139° |
| 2026-04-26 19:35 | 18.45456 | -89.14949 | 20704 ft | 427 kts | 139° |
| 2026-04-26 19:35 | 18.43188 | -89.12944 | 20166 ft | 423 kts | 139° |
| 2026-04-26 19:35 | 18.40953 | -89.10968 | 19797 ft | 415 kts | 139° |
| 2026-04-26 19:36 | 18.38744 | -89.09017 | 19471 ft | 415 kts | 139° |
| 2026-04-26 19:36 | 18.38028 | -89.08384 | 19369 ft | 415 kts | 139° |
| 2026-04-26 19:36 | 18.34325 | -89.05114 | 18836 ft | 413 kts | 139° |
| 2026-04-26 19:36 | 18.32869 | -89.03830 | 18625 ft | 411 kts | 139° |
| 2026-04-26 19:37 | 18.30684 | -89.01902 | 18315 ft | 409 kts | 139° |
| 2026-04-26 19:37 | 18.28511 | -88.99985 | 17975 ft | 407 kts | 139° |
| 2026-04-26 19:37 | 18.26348 | -88.98079 | 17617 ft | 404 kts | 139° |
| 2026-04-26 19:37 | 18.24202 | -88.96188 | 17273 ft | 401 kts | 138° |
| 2026-04-26 19:38 | 18.22070 | -88.94311 | 16920 ft | 398 kts | 138° |
| 2026-04-26 19:38 | 18.19956 | -88.92450 | 16575 ft | 395 kts | 138° |
| 2026-04-26 19:38 | 18.17861 | -88.90606 | 16233 ft | 392 kts | 138° |
| 2026-04-26 19:38 | 18.15778 | -88.88773 | 15897 ft | 389 kts | 137° |
| 2026-04-26 19:39 | 18.13706 | -88.86950 | 15559 ft | 387 kts | 137° |
| 2026-04-26 19:39 | 18.11647 | -88.85139 | 15235 ft | 385 kts | 137° |
| 2026-04-26 19:39 | 18.09601 | -88.83339 | 14905 ft | 382 kts | 137° |
| 2026-04-26 19:39 | 18.07574 | -88.81556 | 14581 ft | 379 kts | 137° |
| 2026-04-26 19:40 | 18.05556 | -88.79783 | 14259 ft | 377 kts | 137° |
| 2026-04-26 19:40 | 18.03556 | -88.78025 | 14066 ft | 373 kts | 137° |
| 2026-04-26 19:40 | 18.01537 | -88.76309 | 14008 ft | 375 kts | 140° |
| 2026-04-26 19:40 | 17.99439 | -88.74667 | 14000 ft | 376 kts | 140° |
| 2026-04-26 19:41 | 17.97351 | -88.73013 | 14000 ft | 376 kts | 140° |
| 2026-04-26 19:41 | 17.95265 | -88.71358 | 14001 ft | 376 kts | 140° |
| 2026-04-26 19:41 | 17.93178 | -88.69704 | 14001 ft | 376 kts | 140° |
| 2026-04-26 19:41 | 17.91794 | -88.68607 | 14001 ft | 376 kts | 140° |
| 2026-04-26 19:42 | 17.88999 | -88.66398 | 14000 ft | 376 kts | 140° |
| 2026-04-26 19:42 | 17.86912 | -88.64749 | 13995 ft | 375 kts | 140° |
| 2026-04-26 19:42 | 17.84825 | -88.63102 | 13995 ft | 375 kts | 140° |
| 2026-04-26 19:42 | 17.82737 | -88.61453 | 13995 ft | 376 kts | 140° |
| 2026-04-26 19:43 | 17.80646 | -88.59803 | 13991 ft | 376 kts | 140° |
| 2026-04-26 19:43 | 17.78555 | -88.58154 | 13993 ft | 376 kts | 140° |
| 2026-04-26 19:43 | 17.76463 | -88.56505 | 13992 ft | 376 kts | 140° |
| 2026-04-26 19:43 | 17.74181 | -88.55150 | 13972 ft | 380 kts | 156° |
| 2026-04-26 19:44 | 17.71620 | -88.54520 | 13803 ft | 379 kts | 173° |
| 2026-04-26 19:44 | 17.68987 | -88.54421 | 13375 ft | 378 kts | 177° |
| 2026-04-26 19:44 | 17.66367 | -88.54363 | 12862 ft | 375 kts | 177° |
| 2026-04-26 19:44 | 17.63765 | -88.54304 | 12365 ft | 372 kts | 177° |
| 2026-04-26 19:45 | 17.61214 | -88.54242 | 12174 ft | 360 kts | 177° |
| 2026-04-26 19:45 | 17.58753 | -88.54178 | 12033 ft | 347 kts | 177° |
| 2026-04-26 19:45 | 17.56388 | -88.54125 | 11917 ft | 334 kts | 180° |
| 2026-04-26 19:45 | 17.54195 | -88.54614 | 11795 ft | 323 kts | 204° |
| 2026-04-26 19:46 | 17.52388 | -88.55948 | 11680 ft | 308 kts | 230° |
| 2026-04-26 19:46 | 17.51344 | -88.57812 | 11560 ft | 290 kts | 257° |
| 2026-04-26 19:46 | 17.51189 | -88.59825 | 11453 ft | 269 kts | 284° |
| 2026-04-26 19:46 | 17.51865 | -88.61533 | 11275 ft | 252 kts | 312° |
| 2026-04-26 19:47 | 17.53189 | -88.62647 | 10915 ft | 243 kts | 341° |
| 2026-04-26 19:47 | 17.54286 | -88.62917 | 10690 ft | 239 kts | 359° |
| 2026-04-26 19:47 | 17.56473 | -88.62800 | 10246 ft | 237 kts | 10° |
| 2026-04-26 19:47 | 17.58097 | -88.62534 | 9956 ft | 236 kts | 6° |
| 2026-04-26 19:48 | 17.59740 | -88.62466 | 9625 ft | 236 kts | 1° |
| 2026-04-26 19:48 | 17.61383 | -88.62506 | 9312 ft | 236 kts | 360° |
| 2026-04-26 19:48 | 17.63013 | -88.62576 | 9008 ft | 233 kts | 360° |
| 2026-04-26 19:48 | 17.64636 | -88.62643 | 8624 ft | 233 kts | 0° |
| 2026-04-26 19:49 | 17.66233 | -88.62375 | 8165 ft | 233 kts | 22° |
| 2026-04-26 19:49 | 17.67602 | -88.61486 | 7763 ft | 233 kts | 44° |
| 2026-04-26 19:49 | 17.68527 | -88.60087 | 7286 ft | 237 kts | 69° |
| 2026-04-26 19:49 | 17.68818 | -88.58393 | 6924 ft | 237 kts | 93° |
| 2026-04-26 19:50 | 17.68438 | -88.56731 | 6574 ft | 235 kts | 117° |
| 2026-04-26 19:50 | 17.67465 | -88.55378 | 6219 ft | 232 kts | 141° |
| 2026-04-26 19:50 | 17.66083 | -88.54551 | 5912 ft | 230 kts | 163° |
| 2026-04-26 19:50 | 17.64504 | -88.54334 | 5597 ft | 229 kts | 178° |
| 2026-04-26 19:51 | 17.62918 | -88.54310 | 5289 ft | 228 kts | 178° |
| 2026-04-26 19:51 | 17.61328 | -88.54270 | 5006 ft | 227 kts | 177° |
| 2026-04-26 19:51 | 17.59755 | -88.54224 | 4727 ft | 226 kts | 177° |
| 2026-04-26 19:51 | 17.58179 | -88.54177 | 4389 ft | 226 kts | 176° |
| 2026-04-26 19:52 | 17.56627 | -88.54114 | 4136 ft | 221 kts | 170° |
| 2026-04-26 19:52 | 17.55232 | -88.53499 | 3773 ft | 220 kts | 138° |
| 2026-04-26 19:52 | 17.54079 | -88.52440 | 3429 ft | 219 kts | 141° |
| 2026-04-26 19:52 | 17.52869 | -88.51495 | 3159 ft | 216 kts | 138° |
| 2026-04-26 19:53 | 17.51817 | -88.50396 | 3030 ft | 215 kts | 131° |
| 2026-04-26 19:53 | 17.51010 | -88.49084 | 3002 ft | 215 kts | 104° |
| 2026-04-26 19:53 | 17.50973 | -88.47571 | 2996 ft | 213 kts | 83° |
| 2026-04-26 19:53 | 17.51185 | -88.46004 | 2996 ft | 219 kts | 83° |
| 2026-04-26 19:54 | 17.51408 | -88.44438 | 2962 ft | 215 kts | 83° |
| 2026-04-26 19:54 | 17.51626 | -88.42899 | 2742 ft | 213 kts | 83° |
| 2026-04-26 19:54 | 17.51834 | -88.41380 | 2535 ft | 210 kts | 83° |
| 2026-04-26 19:54 | 17.52030 | -88.39884 | 2379 ft | 200 kts | 83° |
| 2026-04-26 19:55 | 17.52258 | -88.38523 | 2274 ft | 181 kts | 80° |
| 2026-04-26 19:55 | 17.52498 | -88.37309 | 2132 ft | 154 kts | 79° |
| 2026-04-26 19:55 | 17.52720 | -88.36277 | 1882 ft | 142 kts | 79° |
| 2026-04-26 19:55 | 17.52941 | -88.35270 | 1557 ft | 139 kts | 78° |
| 2026-04-26 19:56 | 17.53152 | -88.34289 | 1140 ft | 136 kts | 78° |
| 2026-04-26 19:56 | 17.53359 | -88.33348 | 869 ft | 128 kts | 78° |
| 2026-04-26 19:56 | 17.53567 | -88.32392 | 305 ft | 141 kts | 78° |
| 2026-04-26 19:56 | 17.53791 | -88.31396 | 26 ft | 137 kts | 79° |
| 2026-04-26 19:57 | 17.53987 | -88.30485 | 17 ft | 89 kts | 77° |
| 2026-04-26 19:57 | 17.54069 | -88.30076 | 18 ft | 39 kts | 78° |
| 2026-04-26 19:57 | 17.54093 | -88.29924 | 17 ft | 4 kts | 94° |
| 2026-04-26 19:57 | 17.54081 | -88.29870 | 17 ft | 7 kts | 93° |
| 2026-04-26 19:58 | 17.54112 | -88.29889 | 17 ft | 12 kts | 269° |
| 2026-04-26 19:58 | 17.54088 | -88.30008 | 18 ft | 20 kts | 257° |
| 2026-04-26 19:58 | 17.54052 | -88.30161 | 20 ft | 23 kts | 256° |
| 2026-04-26 19:58 | 17.54013 | -88.30331 | 18 ft | 25 kts | 256° |
| 2026-04-26 19:59 | 17.53968 | -88.30518 | 17 ft | 28 kts | 255° |
| 2026-04-26 19:59 | 17.53918 | -88.30719 | 19 ft | 29 kts | 255° |
| 2026-04-26 19:59 | 17.53866 | -88.30875 | 17 ft | 0 kts | 202° |
| 2026-04-26 19:59 | 17.53840 | -88.30875 | 17 ft | 10 kts | 178° |
| 2026-04-26 20:00 | 17.53747 | -88.30859 | 19 ft | 14 kts | 186° |
| 2026-04-26 20:00 | 17.53713 | -88.30847 | 17 ft | 5 kts | 73° |
| 2026-04-26 20:00 | 17.53729 | -88.30789 | 17 ft | 0 kts | 79° |
| 2026-04-26 20:00 | 17.53734 | -88.30763 | 17 ft | 9 kts | 79° |
| 2026-04-26 20:01 | 17.53727 | -88.30700 | 18 ft | 8 kts | 131° |
| 2026-04-26 20:01 | 17.53699 | -88.30692 | 17 ft | 1 kts | 165° |
| 2026-04-26 20:01 | 17.53696 | -88.30691 | 17 ft | 0 kts | 165° |